sensor_id;sensor_type;location;lat;lon;timestamp;temperature;humidity
5868;DHT22;2960;49.142;7.768;2023-12-04T00:01:48;-0.90;57.20
5868;DHT22;2960;49.142;7.768;2023-12-04T00:04:16;-1.00;57.20
5868;DHT22;2960;49.142;7.768;2023-12-04T00:06:43;-1.00;57.20
5868;DHT22;2960;49.142;7.768;2023-12-04T00:09:11;-1.00;57.20
5868;DHT22;2960;49.142;7.768;2023-12-04T00:11:38;-1.00;57.20
5868;DHT22;2960;49.142;7.768;2023-12-04T00:14:05;-1.00;57.20
5868;DHT22;2960;49.142;7.768;2023-12-04T00:16:35;-1.00;57.20
5868;DHT22;2960;49.142;7.768;2023-12-04T00:19:02;-1.00;57.20
5868;DHT22;2960;49.142;7.768;2023-12-04T00:21:29;-1.00;57.20
5868;DHT22;2960;49.142;7.768;2023-12-04T00:23:56;-1.00;57.20
5868;DHT22;2960;49.142;7.768;2023-12-04T00:26:23;-1.00;57.20
5868;DHT22;2960;49.142;7.768;2023-12-04T00:28:50;-1.00;57.20
5868;DHT22;2960;49.142;7.768;2023-12-04T00:31:18;-1.10;57.70
5868;DHT22;2960;49.142;7.768;2023-12-04T00:33:46;-1.10;57.10
5868;DHT22;2960;49.142;7.768;2023-12-04T00:36:13;-1.10;57.20
5868;DHT22;2960;49.142;7.768;2023-12-04T00:38:40;-1.10;57.10
5868;DHT22;2960;49.142;7.768;2023-12-04T00:41:08;-1.10;57.70
5868;DHT22;2960;49.142;7.768;2023-12-04T00:43:35;-1.10;57.20
5868;DHT22;2960;49.142;7.768;2023-12-04T00:46:02;-1.20;57.20
5868;DHT22;2960;49.142;7.768;2023-12-04T00:48:29;-1.20;57.30
5868;DHT22;2960;49.142;7.768;2023-12-04T00:50:58;-1.20;57.30
5868;DHT22;2960;49.142;7.768;2023-12-04T00:53:25;-1.20;57.30
5868;DHT22;2960;49.142;7.768;2023-12-04T00:55:52;-1.20;57.30
5868;DHT22;2960;49.142;7.768;2023-12-04T00:58:19;-1.20;57.40
5868;DHT22;2960;49.142;7.768;2023-12-04T01:00:46;-1.20;57.40
5868;DHT22;2960;49.142;7.768;2023-12-04T01:03:16;-1.30;57.40
5868;DHT22;2960;49.142;7.768;2023-12-04T01:05:43;-1.30;57.40
5868;DHT22;2960;49.142;7.768;2023-12-04T01:08:11;-1.30;57.40
5868;DHT22;2960;49.142;7.768;2023-12-04T01:10:39;-1.30;57.40
5868;DHT22;2960;49.142;7.768;2023-12-04T01:13:06;-1.30;57.50
5868;DHT22;2960;49.142;7.768;2023-12-04T01:15:33;-1.30;57.40
5868;DHT22;2960;49.142;7.768;2023-12-04T01:18:00;-1.30;58.00
5868;DHT22;2960;49.142;7.768;2023-12-04T01:20:27;-1.30;57.40
5868;DHT22;2960;49.142;7.768;2023-12-04T01:22:55;-1.30;57.40
5868;DHT22;2960;49.142;7.768;2023-12-04T01:25:23;-1.40;57.30
5868;DHT22;2960;49.142;7.768;2023-12-04T01:27:50;-1.40;57.40
5868;DHT22;2960;49.142;7.768;2023-12-04T01:30:17;-1.40;57.40
5868;DHT22;2960;49.142;7.768;2023-12-04T01:32:45;-1.40;57.50
5868;DHT22;2960;49.142;7.768;2023-12-04T01:35:13;-1.40;57.50
5868;DHT22;2960;49.142;7.768;2023-12-04T01:37:40;-1.40;57.50
5868;DHT22;2960;49.142;7.768;2023-12-04T01:40:08;-1.40;57.50
5868;DHT22;2960;49.142;7.768;2023-12-04T01:42:37;-1.50;57.40
5868;DHT22;2960;49.142;7.768;2023-12-04T01:45:05;-1.50;57.40
5868;DHT22;2960;49.142;7.768;2023-12-04T01:47:33;-1.50;57.50
5868;DHT22;2960;49.142;7.768;2023-12-04T01:50:01;-1.50;57.40
5868;DHT22;2960;49.142;7.768;2023-12-04T01:52:30;-1.50;57.40
5868;DHT22;2960;49.142;7.768;2023-12-04T01:54:57;-1.50;57.40
5868;DHT22;2960;49.142;7.768;2023-12-04T01:57:24;-1.50;57.40
5868;DHT22;2960;49.142;7.768;2023-12-04T01:59:53;-1.50;57.40
5868;DHT22;2960;49.142;7.768;2023-12-04T02:02:20;-1.50;57.40
5868;DHT22;2960;49.142;7.768;2023-12-04T02:04:47;-1.60;57.40
5868;DHT22;2960;49.142;7.768;2023-12-04T02:07:14;-1.60;57.90
5868;DHT22;2960;49.142;7.768;2023-12-04T02:09:42;-1.60;57.60
5868;DHT22;2960;49.142;7.768;2023-12-04T02:12:11;-1.60;57.40
5868;DHT22;2960;49.142;7.768;2023-12-04T02:14:39;-1.50;57.40
5868;DHT22;2960;49.142;7.768;2023-12-04T02:17:08;-1.60;57.40
5868;DHT22;2960;49.142;7.768;2023-12-04T02:19:35;-1.60;57.40
5868;DHT22;2960;49.142;7.768;2023-12-04T02:22:03;-1.60;57.40
5868;DHT22;2960;49.142;7.768;2023-12-04T02:24:31;-1.60;57.90
5868;DHT22;2960;49.142;7.768;2023-12-04T02:27:12;-1.60;57.40
5868;DHT22;2960;49.142;7.768;2023-12-04T02:29:47;-1.60;57.50
5868;DHT22;2960;49.142;7.768;2023-12-04T02:32:19;-1.60;57.50
5868;DHT22;2960;49.142;7.768;2023-12-04T02:34:48;-1.70;57.40
5868;DHT22;2960;49.142;7.768;2023-12-04T02:37:17;-1.70;58.00
5868;DHT22;2960;49.142;7.768;2023-12-04T02:39:46;-1.70;57.50
5868;DHT22;2960;49.142;7.768;2023-12-04T02:42:17;-1.70;57.50
5868;DHT22;2960;49.142;7.768;2023-12-04T02:44:45;-1.70;57.50
5868;DHT22;2960;49.142;7.768;2023-12-04T02:47:12;-1.70;57.50
5868;DHT22;2960;49.142;7.768;2023-12-04T02:49:39;-1.70;57.50
5868;DHT22;2960;49.142;7.768;2023-12-04T02:52:07;-1.70;57.50
5868;DHT22;2960;49.142;7.768;2023-12-04T02:54:34;-1.70;58.10
5868;DHT22;2960;49.142;7.768;2023-12-04T02:57:03;-1.70;57.60
5868;DHT22;2960;49.142;7.768;2023-12-04T02:59:30;-1.70;57.60
5868;DHT22;2960;49.142;7.768;2023-12-04T03:01:57;-1.70;58.20
5868;DHT22;2960;49.142;7.768;2023-12-04T03:04:24;-1.80;57.60
5868;DHT22;2960;49.142;7.768;2023-12-04T03:06:51;-1.80;57.60
5868;DHT22;2960;49.142;7.768;2023-12-04T03:09:18;-1.80;57.60
5868;DHT22;2960;49.142;7.768;2023-12-04T03:11:46;-1.80;58.30
5868;DHT22;2960;49.142;7.768;2023-12-04T03:14:14;-1.80;57.70
5868;DHT22;2960;49.142;7.768;2023-12-04T03:16:41;-1.80;58.30
5868;DHT22;2960;49.142;7.768;2023-12-04T03:19:08;-1.80;57.80
5868;DHT22;2960;49.142;7.768;2023-12-04T03:21:36;-1.80;58.40
5868;DHT22;2960;49.142;7.768;2023-12-04T03:24:06;-1.80;57.90
5868;DHT22;2960;49.142;7.768;2023-12-04T03:26:35;-1.90;57.80
5868;DHT22;2960;49.142;7.768;2023-12-04T03:29:02;-1.80;57.90
5868;DHT22;2960;49.142;7.768;2023-12-04T03:31:33;-1.90;57.90
5868;DHT22;2960;49.142;7.768;2023-12-04T03:34:02;-1.80;58.00
5868;DHT22;2960;49.142;7.768;2023-12-04T03:36:29;-1.80;58.00
5868;DHT22;2960;49.142;7.768;2023-12-04T03:38:56;-1.80;58.00
5868;DHT22;2960;49.142;7.768;2023-12-04T03:41:24;-1.80;58.00
5868;DHT22;2960;49.142;7.768;2023-12-04T03:43:51;-1.80;57.90
5868;DHT22;2960;49.142;7.768;2023-12-04T03:46:18;-1.80;57.90
5868;DHT22;2960;49.142;7.768;2023-12-04T03:48:46;-1.80;57.90
5868;DHT22;2960;49.142;7.768;2023-12-04T03:51:13;-1.80;58.00
5868;DHT22;2960;49.142;7.768;2023-12-04T03:53:40;-1.80;58.00
5868;DHT22;2960;49.142;7.768;2023-12-04T03:56:08;-1.70;58.10
5868;DHT22;2960;49.142;7.768;2023-12-04T03:58:37;-1.70;58.20
5868;DHT22;2960;49.142;7.768;2023-12-04T04:01:05;-1.70;58.70
5868;DHT22;2960;49.142;7.768;2023-12-04T04:03:33;-1.70;58.20
5868;DHT22;2960;49.142;7.768;2023-12-04T04:06:01;-1.80;58.10
5868;DHT22;2960;49.142;7.768;2023-12-04T04:08:31;-1.80;58.20
5868;DHT22;2960;49.142;7.768;2023-12-04T04:10:58;-1.80;58.20
5868;DHT22;2960;49.142;7.768;2023-12-04T04:13:25;-1.80;58.30
5868;DHT22;2960;49.142;7.768;2023-12-04T04:15:52;-1.80;58.30
5868;DHT22;2960;49.142;7.768;2023-12-04T04:18:19;-1.80;58.30
5868;DHT22;2960;49.142;7.768;2023-12-04T04:20:46;-1.80;58.30
5868;DHT22;2960;49.142;7.768;2023-12-04T04:23:15;-1.70;58.40
5868;DHT22;2960;49.142;7.768;2023-12-04T04:25:42;-1.70;58.40
5868;DHT22;2960;49.142;7.768;2023-12-04T04:28:09;-1.70;58.40
5868;DHT22;2960;49.142;7.768;2023-12-04T04:30:36;-1.70;58.40
5868;DHT22;2960;49.142;7.768;2023-12-04T04:33:06;-1.70;58.40
5868;DHT22;2960;49.142;7.768;2023-12-04T04:35:33;-1.70;58.50
5868;DHT22;2960;49.142;7.768;2023-12-04T04:38:04;-1.70;58.40
5868;DHT22;2960;49.142;7.768;2023-12-04T04:40:35;-1.70;59.00
5868;DHT22;2960;49.142;7.768;2023-12-04T04:43:03;-1.60;58.50
5868;DHT22;2960;49.142;7.768;2023-12-04T04:45:30;-1.60;58.50
5868;DHT22;2960;49.142;7.768;2023-12-04T04:47:57;-1.60;58.50
5868;DHT22;2960;49.142;7.768;2023-12-04T04:50:24;-1.60;58.50
5868;DHT22;2960;49.142;7.768;2023-12-04T04:52:52;-1.60;58.50
5868;DHT22;2960;49.142;7.768;2023-12-04T04:55:19;-1.60;58.60
5868;DHT22;2960;49.142;7.768;2023-12-04T04:57:48;-1.60;58.50
5868;DHT22;2960;49.142;7.768;2023-12-04T05:00:15;-1.50;58.70
5868;DHT22;2960;49.142;7.768;2023-12-04T05:02:44;-1.50;58.70
5868;DHT22;2960;49.142;7.768;2023-12-04T05:05:11;-1.50;58.70
5868;DHT22;2960;49.142;7.768;2023-12-04T05:07:38;-1.50;58.80
5868;DHT22;2960;49.142;7.768;2023-12-04T05:10:06;-1.50;58.80
5868;DHT22;2960;49.142;7.768;2023-12-04T05:12:33;-1.50;58.80
5868;DHT22;2960;49.142;7.768;2023-12-04T05:15:02;-1.40;58.90
5868;DHT22;2960;49.142;7.768;2023-12-04T05:17:30;-1.50;58.90
5868;DHT22;2960;49.142;7.768;2023-12-04T05:19:57;-1.50;58.90
5868;DHT22;2960;49.142;7.768;2023-12-04T05:22:24;-1.50;58.90
5868;DHT22;2960;49.142;7.768;2023-12-04T05:24:51;-1.40;59.00
5868;DHT22;2960;49.142;7.768;2023-12-04T05:27:18;-1.40;59.00
5868;DHT22;2960;49.142;7.768;2023-12-04T05:29:45;-1.40;59.00
5868;DHT22;2960;49.142;7.768;2023-12-04T05:32:14;-1.40;59.10
5868;DHT22;2960;49.142;7.768;2023-12-04T05:34:41;-1.40;59.10
5868;DHT22;2960;49.142;7.768;2023-12-04T05:37:08;-1.40;59.10
5868;DHT22;2960;49.142;7.768;2023-12-04T05:39:35;-1.40;59.20
5868;DHT22;2960;49.142;7.768;2023-12-04T05:42:02;-1.30;59.30
5868;DHT22;2960;49.142;7.768;2023-12-04T05:44:30;-1.40;59.30
5868;DHT22;2960;49.142;7.768;2023-12-04T05:46:58;-1.40;59.30
5868;DHT22;2960;49.142;7.768;2023-12-04T05:49:26;-1.40;59.30
5868;DHT22;2960;49.142;7.768;2023-12-04T05:51:54;-1.40;59.30
5868;DHT22;2960;49.142;7.768;2023-12-04T05:54:21;-1.40;59.40
5868;DHT22;2960;49.142;7.768;2023-12-04T05:56:48;-1.40;59.30
5868;DHT22;2960;49.142;7.768;2023-12-04T05:59:16;-1.40;59.40
5868;DHT22;2960;49.142;7.768;2023-12-04T06:01:43;-1.30;59.50
5868;DHT22;2960;49.142;7.768;2023-12-04T06:04:10;-1.30;59.50
5868;DHT22;2960;49.142;7.768;2023-12-04T06:06:41;-1.30;59.50
5868;DHT22;2960;49.142;7.768;2023-12-04T06:09:08;-1.30;59.50
5868;DHT22;2960;49.142;7.768;2023-12-04T06:11:38;-1.30;59.50
5868;DHT22;2960;49.142;7.768;2023-12-04T06:14:06;-1.30;59.60
5868;DHT22;2960;49.142;7.768;2023-12-04T06:16:33;-1.30;59.60
5868;DHT22;2960;49.142;7.768;2023-12-04T06:19:00;-1.30;59.60
5868;DHT22;2960;49.142;7.768;2023-12-04T06:21:28;-1.20;59.70
5868;DHT22;2960;49.142;7.768;2023-12-04T06:23:57;-1.20;59.70
5868;DHT22;2960;49.142;7.768;2023-12-04T06:26:26;-1.20;59.70
5868;DHT22;2960;49.142;7.768;2023-12-04T06:28:54;-1.20;59.70
5868;DHT22;2960;49.142;7.768;2023-12-04T06:31:22;-1.20;59.70
5868;DHT22;2960;49.142;7.768;2023-12-04T06:33:50;-1.10;59.80
5868;DHT22;2960;49.142;7.768;2023-12-04T06:36:17;-1.10;59.80
5868;DHT22;2960;49.142;7.768;2023-12-04T06:38:47;-1.10;59.90
5868;DHT22;2960;49.142;7.768;2023-12-04T06:41:20;-1.10;59.90
5868;DHT22;2960;49.142;7.768;2023-12-04T06:43:48;-1.10;60.00
5868;DHT22;2960;49.142;7.768;2023-12-04T06:46:17;-1.10;60.00
5868;DHT22;2960;49.142;7.768;2023-12-04T06:48:48;-1.10;60.10
5868;DHT22;2960;49.142;7.768;2023-12-04T06:51:16;-1.10;60.10
5868;DHT22;2960;49.142;7.768;2023-12-04T06:53:44;-1.00;60.30
5868;DHT22;2960;49.142;7.768;2023-12-04T06:56:11;-1.00;61.10
5868;DHT22;2960;49.142;7.768;2023-12-04T06:58:40;-1.00;60.30
5868;DHT22;2960;49.142;7.768;2023-12-04T07:01:07;-1.00;60.30
5868;DHT22;2960;49.142;7.768;2023-12-04T07:03:34;-1.00;60.30
5868;DHT22;2960;49.142;7.768;2023-12-04T07:06:04;-1.00;60.40
5868;DHT22;2960;49.142;7.768;2023-12-04T07:08:32;-1.00;60.50
5868;DHT22;2960;49.142;7.768;2023-12-04T07:10:59;-0.90;60.60
5868;DHT22;2960;49.142;7.768;2023-12-04T07:13:26;-0.90;60.50
5868;DHT22;2960;49.142;7.768;2023-12-04T07:15:55;-0.90;60.50
5868;DHT22;2960;49.142;7.768;2023-12-04T07:18:22;-0.90;60.60
5868;DHT22;2960;49.142;7.768;2023-12-04T07:20:49;-0.90;60.60
5868;DHT22;2960;49.142;7.768;2023-12-04T07:23:16;-0.90;60.70
5868;DHT22;2960;49.142;7.768;2023-12-04T07:25:43;-0.90;60.70
5868;DHT22;2960;49.142;7.768;2023-12-04T07:28:11;-0.90;60.70
5868;DHT22;2960;49.142;7.768;2023-12-04T07:30:39;-0.90;60.70
5868;DHT22;2960;49.142;7.768;2023-12-04T07:33:08;-0.80;60.80
5868;DHT22;2960;49.142;7.768;2023-12-04T07:35:35;-0.80;60.80
5868;DHT22;2960;49.142;7.768;2023-12-04T07:38:02;-0.80;60.80
5868;DHT22;2960;49.142;7.768;2023-12-04T07:40:29;-0.80;60.80
5868;DHT22;2960;49.142;7.768;2023-12-04T07:42:59;-0.80;60.80
5868;DHT22;2960;49.142;7.768;2023-12-04T07:45:26;-0.70;60.90
5868;DHT22;2960;49.142;7.768;2023-12-04T07:47:53;-0.70;60.90
5868;DHT22;2960;49.142;7.768;2023-12-04T07:50:22;-0.70;60.90
5868;DHT22;2960;49.142;7.768;2023-12-04T07:52:50;-0.70;60.90
5868;DHT22;2960;49.142;7.768;2023-12-04T07:55:17;-0.60;61.10
5868;DHT22;2960;49.142;7.768;2023-12-04T07:57:44;-0.60;61.90
5868;DHT22;2960;49.142;7.768;2023-12-04T08:00:12;-0.50;61.20
5868;DHT22;2960;49.142;7.768;2023-12-04T08:02:41;-0.50;61.20
5868;DHT22;2960;49.142;7.768;2023-12-04T08:05:10;-0.40;61.20
5868;DHT22;2960;49.142;7.768;2023-12-04T08:07:39;-0.40;61.20
5868;DHT22;2960;49.142;7.768;2023-12-04T08:10:07;-0.20;61.40
5868;DHT22;2960;49.142;7.768;2023-12-04T08:12:35;-0.30;61.30
5868;DHT22;2960;49.142;7.768;2023-12-04T08:15:03;-0.30;61.30
5868;DHT22;2960;49.142;7.768;2023-12-04T08:17:31;-0.30;61.30
5868;DHT22;2960;49.142;7.768;2023-12-04T08:19:59;-0.30;61.20
5868;DHT22;2960;49.142;7.768;2023-12-04T08:22:26;-0.20;61.50
5868;DHT22;2960;49.142;7.768;2023-12-04T08:24:55;-0.20;61.50
5868;DHT22;2960;49.142;7.768;2023-12-04T08:27:23;-0.20;61.50
5868;DHT22;2960;49.142;7.768;2023-12-04T08:29:50;-0.20;61.50
5868;DHT22;2960;49.142;7.768;2023-12-04T08:32:17;-0.10;61.50
5868;DHT22;2960;49.142;7.768;2023-12-04T08:34:46;-0.10;61.50
5868;DHT22;2960;49.142;7.768;2023-12-04T08:37:14;-0.10;61.50
5868;DHT22;2960;49.142;7.768;2023-12-04T08:39:41;0.00;61.60
5868;DHT22;2960;49.142;7.768;2023-12-04T08:42:09;0.00;61.60
5868;DHT22;2960;49.142;7.768;2023-12-04T08:44:36;0.00;61.70
5868;DHT22;2960;49.142;7.768;2023-12-04T08:47:04;0.00;61.70
5868;DHT22;2960;49.142;7.768;2023-12-04T08:49:31;0.00;61.70
5868;DHT22;2960;49.142;7.768;2023-12-04T08:51:59;0.20;61.90
5868;DHT22;2960;49.142;7.768;2023-12-04T08:54:26;0.10;61.80
5868;DHT22;2960;49.142;7.768;2023-12-04T08:56:53;0.10;61.80
5868;DHT22;2960;49.142;7.768;2023-12-04T08:59:21;0.20;61.90
5868;DHT22;2960;49.142;7.768;2023-12-04T09:01:48;0.20;61.90
5868;DHT22;2960;49.142;7.768;2023-12-04T09:04:16;0.20;61.90
5868;DHT22;2960;49.142;7.768;2023-12-04T09:06:43;0.20;61.90
5868;DHT22;2960;49.142;7.768;2023-12-04T09:09:10;0.30;62.00
5868;DHT22;2960;49.142;7.768;2023-12-04T09:11:41;0.30;61.90
5868;DHT22;2960;49.142;7.768;2023-12-04T09:14:09;0.30;61.90
5868;DHT22;2960;49.142;7.768;2023-12-04T09:16:39;0.40;62.00
5868;DHT22;2960;49.142;7.768;2023-12-04T09:19:06;0.40;61.90
5868;DHT22;2960;49.142;7.768;2023-12-04T09:21:34;0.40;61.90
5868;DHT22;2960;49.142;7.768;2023-12-04T09:24:01;0.50;62.00
5868;DHT22;2960;49.142;7.768;2023-12-04T09:26:29;0.50;61.90
5868;DHT22;2960;49.142;7.768;2023-12-04T09:28:56;0.60;62.00
5868;DHT22;2960;49.142;7.768;2023-12-04T09:31:23;0.60;62.00
5868;DHT22;2960;49.142;7.768;2023-12-04T09:33:51;0.60;62.00
5868;DHT22;2960;49.142;7.768;2023-12-04T09:36:18;0.70;62.00
5868;DHT22;2960;49.142;7.768;2023-12-04T09:38:48;0.70;62.10
5868;DHT22;2960;49.142;7.768;2023-12-04T09:41:16;0.80;62.10
5868;DHT22;2960;49.142;7.768;2023-12-04T09:43:44;0.80;62.90
5868;DHT22;2960;49.142;7.768;2023-12-04T09:46:12;0.90;62.20
5868;DHT22;2960;49.142;7.768;2023-12-04T09:48:43;0.90;62.20
5868;DHT22;2960;49.142;7.768;2023-12-04T09:51:13;0.90;62.20
5868;DHT22;2960;49.142;7.768;2023-12-04T09:53:41;0.90;62.20
5868;DHT22;2960;49.142;7.768;2023-12-04T09:56:09;1.00;62.20
5868;DHT22;2960;49.142;7.768;2023-12-04T09:58:39;1.00;62.30
5868;DHT22;2960;49.142;7.768;2023-12-04T10:01:07;1.00;62.20
5868;DHT22;2960;49.142;7.768;2023-12-04T10:03:35;1.00;62.20
5868;DHT22;2960;49.142;7.768;2023-12-04T10:06:05;1.00;62.30
5868;DHT22;2960;49.142;7.768;2023-12-04T10:08:34;1.10;62.50
5868;DHT22;2960;49.142;7.768;2023-12-04T10:11:02;1.10;62.50
5868;DHT22;2960;49.142;7.768;2023-12-04T10:13:30;1.10;62.50
5868;DHT22;2960;49.142;7.768;2023-12-04T10:15:57;1.10;63.20
5868;DHT22;2960;49.142;7.768;2023-12-04T10:18:25;1.10;62.50
5868;DHT22;2960;49.142;7.768;2023-12-04T10:20:53;1.10;62.60
5868;DHT22;2960;49.142;7.768;2023-12-04T10:23:21;1.10;62.60
5868;DHT22;2960;49.142;7.768;2023-12-04T10:25:50;1.20;62.70
5868;DHT22;2960;49.142;7.768;2023-12-04T10:28:18;1.20;62.70
5868;DHT22;2960;49.142;7.768;2023-12-04T10:30:45;1.20;62.70
5868;DHT22;2960;49.142;7.768;2023-12-04T10:33:13;1.20;62.70
5868;DHT22;2960;49.142;7.768;2023-12-04T10:35:40;1.20;62.80
5868;DHT22;2960;49.142;7.768;2023-12-04T10:38:09;1.20;62.80
5868;DHT22;2960;49.142;7.768;2023-12-04T10:40:37;1.20;62.90
5868;DHT22;2960;49.142;7.768;2023-12-04T10:43:15;1.20;63.00
5868;DHT22;2960;49.142;7.768;2023-12-04T10:45:44;1.20;63.20
5868;DHT22;2960;49.142;7.768;2023-12-04T10:48:13;1.20;63.30
5868;DHT22;2960;49.142;7.768;2023-12-04T10:50:43;1.20;63.30
5868;DHT22;2960;49.142;7.768;2023-12-04T10:53:15;1.20;63.40
5868;DHT22;2960;49.142;7.768;2023-12-04T10:55:44;1.20;63.40
5868;DHT22;2960;49.142;7.768;2023-12-04T10:58:14;1.20;63.40
5868;DHT22;2960;49.142;7.768;2023-12-04T11:00:44;1.20;63.40
5868;DHT22;2960;49.142;7.768;2023-12-04T11:03:16;1.30;63.60
5868;DHT22;2960;49.142;7.768;2023-12-04T11:05:53;1.30;63.60
5868;DHT22;2960;49.142;7.768;2023-12-04T11:08:23;1.30;63.60
5868;DHT22;2960;49.142;7.768;2023-12-04T11:10:56;1.30;63.60
5868;DHT22;2960;49.142;7.768;2023-12-04T11:13:28;1.30;63.60
5868;DHT22;2960;49.142;7.768;2023-12-04T11:16:04;1.30;64.50
5868;DHT22;2960;49.142;7.768;2023-12-04T11:18:37;1.30;63.70
5868;DHT22;2960;49.142;7.768;2023-12-04T11:21:08;1.30;63.70
5868;DHT22;2960;49.142;7.768;2023-12-04T11:23:36;1.40;63.90
5868;DHT22;2960;49.142;7.768;2023-12-04T11:26:05;1.40;64.00
5868;DHT22;2960;49.142;7.768;2023-12-04T11:28:35;1.40;64.00
5868;DHT22;2960;49.142;7.768;2023-12-04T11:31:04;1.40;64.00
5868;DHT22;2960;49.142;7.768;2023-12-04T11:33:35;1.40;64.10
5868;DHT22;2960;49.142;7.768;2023-12-04T11:36:07;1.50;64.30
5868;DHT22;2960;49.142;7.768;2023-12-04T11:38:35;1.40;64.20
5868;DHT22;2960;49.142;7.768;2023-12-04T11:41:14;1.40;64.20
5868;DHT22;2960;49.142;7.768;2023-12-04T11:43:45;1.50;64.40
5868;DHT22;2960;49.142;7.768;2023-12-04T11:46:14;1.50;64.50
5868;DHT22;2960;49.142;7.768;2023-12-04T11:48:48;1.50;64.50
5868;DHT22;2960;49.142;7.768;2023-12-04T11:51:45;1.50;64.50
5868;DHT22;2960;49.142;7.768;2023-12-04T11:54:18;1.50;64.80
5868;DHT22;2960;49.142;7.768;2023-12-04T11:59:49;1.60;65.00
5868;DHT22;2960;49.142;7.768;2023-12-04T12:02:17;1.60;65.00
5868;DHT22;2960;49.142;7.768;2023-12-04T12:04:44;1.60;65.00
5868;DHT22;2960;49.142;7.768;2023-12-04T12:07:12;1.70;65.10
5868;DHT22;2960;49.142;7.768;2023-12-04T12:09:39;1.70;65.60
5868;DHT22;2960;49.142;7.768;2023-12-04T12:12:07;1.70;65.00
5868;DHT22;2960;49.142;7.768;2023-12-04T12:14:34;1.80;65.10
5868;DHT22;2960;49.142;7.768;2023-12-04T12:17:03;1.80;65.10
5868;DHT22;2960;49.142;7.768;2023-12-04T12:19:30;1.80;65.10
5868;DHT22;2960;49.142;7.768;2023-12-04T12:21:58;1.80;65.10
5868;DHT22;2960;49.142;7.768;2023-12-04T12:24:25;1.80;65.10
5868;DHT22;2960;49.142;7.768;2023-12-04T12:26:54;1.80;65.20
5868;DHT22;2960;49.142;7.768;2023-12-04T12:29:21;1.90;65.30
5868;DHT22;2960;49.142;7.768;2023-12-04T12:31:48;1.90;65.30
5868;DHT22;2960;49.142;7.768;2023-12-04T12:34:18;1.90;65.40
5868;DHT22;2960;49.142;7.768;2023-12-04T12:36:45;1.90;65.40
5868;DHT22;2960;49.142;7.768;2023-12-04T12:39:12;1.90;65.40
5868;DHT22;2960;49.142;7.768;2023-12-04T12:41:47;2.00;65.50
5868;DHT22;2960;49.142;7.768;2023-12-04T12:44:16;2.00;65.50
5868;DHT22;2960;49.142;7.768;2023-12-04T12:46:47;2.00;65.60
5868;DHT22;2960;49.142;7.768;2023-12-04T12:49:17;2.00;65.60
5868;DHT22;2960;49.142;7.768;2023-12-04T12:51:46;2.00;65.70
5868;DHT22;2960;49.142;7.768;2023-12-04T12:54:13;2.00;65.70
5868;DHT22;2960;49.142;7.768;2023-12-04T12:56:40;2.00;65.70
5868;DHT22;2960;49.142;7.768;2023-12-04T12:59:08;2.10;65.80
5868;DHT22;2960;49.142;7.768;2023-12-04T13:01:37;2.10;65.90
5868;DHT22;2960;49.142;7.768;2023-12-04T13:04:14;2.10;65.90
5868;DHT22;2960;49.142;7.768;2023-12-04T13:06:43;2.10;65.90
5868;DHT22;2960;49.142;7.768;2023-12-04T13:09:12;2.10;66.00
5868;DHT22;2960;49.142;7.768;2023-12-04T13:11:43;2.10;66.30
5868;DHT22;2960;49.142;7.768;2023-12-04T13:14:11;2.10;66.30
5868;DHT22;2960;49.142;7.768;2023-12-04T13:16:38;2.10;66.20
5868;DHT22;2960;49.142;7.768;2023-12-04T13:19:05;2.10;66.30
5868;DHT22;2960;49.142;7.768;2023-12-04T13:21:32;2.20;66.40
5868;DHT22;2960;49.142;7.768;2023-12-04T13:24:01;2.20;66.40
5868;DHT22;2960;49.142;7.768;2023-12-04T13:26:32;2.20;66.30
5868;DHT22;2960;49.142;7.768;2023-12-04T13:29:00;2.20;66.40
5868;DHT22;2960;49.142;7.768;2023-12-04T13:31:28;2.20;66.30
5868;DHT22;2960;49.142;7.768;2023-12-04T13:33:55;2.20;66.30
5868;DHT22;2960;49.142;7.768;2023-12-04T13:36:23;2.20;66.40
5868;DHT22;2960;49.142;7.768;2023-12-04T13:38:50;2.20;66.40
5868;DHT22;2960;49.142;7.768;2023-12-04T13:41:20;2.20;66.40
5868;DHT22;2960;49.142;7.768;2023-12-04T13:44:02;2.20;66.40
5868;DHT22;2960;49.142;7.768;2023-12-04T13:46:30;2.20;67.20
5868;DHT22;2960;49.142;7.768;2023-12-04T13:49:00;2.20;66.50
5868;DHT22;2960;49.142;7.768;2023-12-04T13:51:27;2.20;66.50
5868;DHT22;2960;49.142;7.768;2023-12-04T13:53:54;2.20;66.40
5868;DHT22;2960;49.142;7.768;2023-12-04T13:56:29;2.20;66.40
5868;DHT22;2960;49.142;7.768;2023-12-04T13:59:10;2.20;66.50
5868;DHT22;2960;49.142;7.768;2023-12-04T14:01:44;2.20;66.50
5868;DHT22;2960;49.142;7.768;2023-12-04T14:04:11;2.20;66.50
5868;DHT22;2960;49.142;7.768;2023-12-04T14:06:39;2.20;66.50
5868;DHT22;2960;49.142;7.768;2023-12-04T14:09:06;2.30;66.60
5868;DHT22;2960;49.142;7.768;2023-12-04T14:11:37;2.30;66.60
5868;DHT22;2960;49.142;7.768;2023-12-04T14:14:04;2.30;66.60
5868;DHT22;2960;49.142;7.768;2023-12-04T14:16:31;2.20;66.50
5868;DHT22;2960;49.142;7.768;2023-12-04T14:18:58;2.30;66.70
5868;DHT22;2960;49.142;7.768;2023-12-04T14:21:26;2.30;66.70
5868;DHT22;2960;49.142;7.768;2023-12-04T14:23:53;2.30;66.70
5868;DHT22;2960;49.142;7.768;2023-12-04T14:26:20;2.30;66.80
5868;DHT22;2960;49.142;7.768;2023-12-04T14:28:49;2.30;66.80
5868;DHT22;2960;49.142;7.768;2023-12-04T14:31:16;2.30;66.80
5868;DHT22;2960;49.142;7.768;2023-12-04T14:33:43;2.30;66.80
5868;DHT22;2960;49.142;7.768;2023-12-04T14:36:11;2.30;66.80
5868;DHT22;2960;49.142;7.768;2023-12-04T14:38:41;2.30;66.90
5868;DHT22;2960;49.142;7.768;2023-12-04T14:41:08;2.30;66.90
5868;DHT22;2960;49.142;7.768;2023-12-04T14:43:36;2.30;66.90
5868;DHT22;2960;49.142;7.768;2023-12-04T14:46:05;2.30;66.90
5868;DHT22;2960;49.142;7.768;2023-12-04T14:48:37;2.30;66.90
5868;DHT22;2960;49.142;7.768;2023-12-04T14:51:05;2.30;66.90
5868;DHT22;2960;49.142;7.768;2023-12-04T14:53:32;2.30;66.90
5868;DHT22;2960;49.142;7.768;2023-12-04T14:56:10;2.30;66.90
5868;DHT22;2960;49.142;7.768;2023-12-04T14:58:51;2.30;67.00
5868;DHT22;2960;49.142;7.768;2023-12-04T15:01:53;2.30;67.00
5868;DHT22;2960;49.142;7.768;2023-12-04T15:04:38;2.30;67.80
5868;DHT22;2960;49.142;7.768;2023-12-04T15:07:22;2.30;67.10
5868;DHT22;2960;49.142;7.768;2023-12-04T15:10:15;2.30;67.20
5868;DHT22;2960;49.142;7.768;2023-12-04T15:13:04;2.30;67.20
5868;DHT22;2960;49.142;7.768;2023-12-04T15:15:53;2.30;67.20
5868;DHT22;2960;49.142;7.768;2023-12-04T15:18:43;2.30;67.20
5868;DHT22;2960;49.142;7.768;2023-12-04T15:21:32;2.30;67.20
5868;DHT22;2960;49.142;7.768;2023-12-04T15:23:59;2.30;67.20
5868;DHT22;2960;49.142;7.768;2023-12-04T15:26:26;2.40;67.20
5868;DHT22;2960;49.142;7.768;2023-12-04T15:28:53;2.40;67.30
5868;DHT22;2960;49.142;7.768;2023-12-04T15:31:20;2.40;67.30
5868;DHT22;2960;49.142;7.768;2023-12-04T15:33:47;2.40;67.40
5868;DHT22;2960;49.142;7.768;2023-12-04T15:36:15;2.40;68.30
5868;DHT22;2960;49.142;7.768;2023-12-04T15:38:42;2.40;67.50
5868;DHT22;2960;49.142;7.768;2023-12-04T15:41:09;2.40;67.50
5868;DHT22;2960;49.142;7.768;2023-12-04T15:43:36;2.40;67.50
5868;DHT22;2960;49.142;7.768;2023-12-04T15:46:04;2.40;67.60
5868;DHT22;2960;49.142;7.768;2023-12-04T15:48:31;2.40;67.60
5868;DHT22;2960;49.142;7.768;2023-12-04T15:51:00;2.40;67.70
5868;DHT22;2960;49.142;7.768;2023-12-04T15:53:26;2.40;67.70
5868;DHT22;2960;49.142;7.768;2023-12-04T15:55:53;2.40;68.50
5868;DHT22;2960;49.142;7.768;2023-12-04T15:58:19;2.40;67.70
5868;DHT22;2960;49.142;7.768;2023-12-04T16:00:47;2.40;67.80
5868;DHT22;2960;49.142;7.768;2023-12-04T16:03:13;2.40;67.80
5868;DHT22;2960;49.142;7.768;2023-12-04T16:05:40;2.40;67.90
5868;DHT22;2960;49.142;7.768;2023-12-04T16:08:10;2.40;67.90
5868;DHT22;2960;49.142;7.768;2023-12-04T16:10:37;2.40;67.90
5868;DHT22;2960;49.142;7.768;2023-12-04T16:13:04;2.40;67.90
5868;DHT22;2960;49.142;7.768;2023-12-04T16:15:32;2.40;68.10
5868;DHT22;2960;49.142;7.768;2023-12-04T16:17:59;2.50;68.30
5868;DHT22;2960;49.142;7.768;2023-12-04T16:20:26;2.50;68.30
5868;DHT22;2960;49.142;7.768;2023-12-04T16:22:53;2.50;68.30